Time;durP1;ratioP1;P1;durP2;ratioP2;P2;SDS_P1;SDS_P2;PMS_P1;PMS_P2;Temp;Humidity;BMP_temperature;BMP_pressure;BME280_temperature;BME280_humidity;BME280_pressure;Samples;Min_cycle;Max_cycle;Signal;HPM_P1;HPM_P2
2024/02/05 00:02:01;;;;;;;1.25;0.65;;;6.50;99.90;;;;;;2620988;46;20280;31
2024/02/05 00:04:36;;;;;;;0.90;0.70;;;6.50;99.90;;;;;;2602766;54;21527;31
2024/02/05 00:07:13;;;;;;;1.30;0.70;;;6.50;99.90;;;;;;2602613;54;20137;31
2024/02/05 00:09:49;;;;;;;2.17;1.20;;;6.50;99.90;;;;;;2602710;54;20077;31
2024/02/05 00:12:28;;;;;;;1.83;0.80;;;6.50;99.90;;;;;;2602665;54;20030;31
2024/02/05 00:15:04;;;;;;;1.23;0.80;;;6.50;99.90;;;;;;2602542;54;20277;31
2024/02/05 00:17:38;;;;;;;;;;;6.50;99.90;;;;;;2621157;46;20250;31
2024/02/05 00:20:15;;;;;;;2.70;1.13;;;6.50;99.90;;;;;;2602546;54;20755;31
2024/02/05 00:22:48;;;;;;;3.58;1.27;;;6.60;99.90;;;;;;2602804;54;22382;31
2024/02/05 00:25:24;;;;;;;2.22;1.10;;;6.50;99.90;;;;;;2602484;54;20038;31
2024/02/05 00:28:02;;;;;;;4.85;1.48;;;6.60;99.90;;;;;;2620997;46;20148;31
2024/02/05 00:30:37;;;;;;;2.65;1.13;;;6.60;99.90;;;;;;2602482;54;20038;31
2024/02/05 00:33:12;;;;;;;2.50;1.30;;;6.60;99.90;;;;;;2602775;54;20027;31
2024/02/05 00:35:47;;;;;;;2.00;1.20;;;6.60;99.90;;;;;;2602538;54;20731;31
2024/02/05 00:38:21;;;;;;;2.55;1.15;;;6.60;99.90;;;;;;2602587;54;20267;31
2024/02/05 00:40:57;;;;;;;2.40;1.23;;;6.60;99.90;;;;;;2620878;46;20050;31
2024/02/05 00:43:36;;;;;;;2.63;1.40;;;6.60;99.90;;;;;;2602501;54;20056;31
2024/02/05 00:46:11;;;;;;;2.95;1.30;;;6.70;99.90;;;;;;2602496;54;21009;31
2024/02/05 00:48:46;;;;;;;4.07;1.53;;;6.70;99.90;;;;;;2602414;54;20803;31
2024/02/05 00:51:21;;;;;;;2.97;1.65;;;6.70;99.90;;;;;;2602519;54;20050;31
2024/02/05 00:53:57;;;;;;;3.75;1.80;;;6.70;99.90;;;;;;2602623;54;20834;31
2024/02/05 00:56:33;;;;;;;4.83;1.90;;;6.70;99.90;;;;;;2602519;54;20027;31
2024/02/05 00:59:12;;;;;;;5.13;1.92;;;6.70;99.90;;;;;;2621057;46;20254;31
2024/02/05 01:01:47;;;;;;;3.70;1.80;;;6.80;99.90;;;;;;2602380;54;20026;31
2024/02/05 01:04:22;;;;;;;4.60;1.67;;;6.80;99.90;;;;;;2602165;54;20916;31
2024/02/05 01:06:56;;;;;;;1.85;1.25;;;6.80;99.90;;;;;;2602562;54;21169;31
2024/02/05 01:09:31;;;;;;;3.20;1.35;;;6.80;99.90;;;;;;2602287;54;20038;31
2024/02/05 01:12:06;;;;;;;5.47;1.47;;;6.80;99.90;;;;;;2602361;54;20030;31
2024/02/05 01:14:44;;;;;;;4.50;1.85;;;6.80;99.90;;;;;;2602493;54;20788;31
2024/02/05 01:17:19;;;;;;;3.50;1.52;;;6.80;99.90;;;;;;2602584;54;20936;31
2024/02/05 01:19:54;;;;;;;3.08;1.50;;;6.80;99.90;;;;;;2602387;54;20023;31
2024/02/05 01:22:31;;;;;;;3.33;1.30;;;6.90;99.90;;;;;;2602333;54;20085;31
2024/02/05 01:25:08;;;;;;;3.00;1.70;;;6.80;99.90;;;;;;2602247;54;20162;31
2024/02/05 01:27:43;;;;;;;4.55;1.55;;;6.80;99.90;;;;;;2602411;54;20895;31
2024/02/05 01:30:21;;;;;;;3.63;1.60;;;6.90;99.90;;;;;;2602200;54;20030;31
2024/02/05 01:32:56;;;;;;;3.73;1.90;;;6.90;99.90;;;;;;2602202;54;20027;31
2024/02/05 01:35:32;;;;;;;5.68;1.75;;;6.90;99.90;;;;;;2602220;54;21047;31
2024/02/05 01:38:07;;;;;;;3.57;1.97;;;6.90;99.90;;;;;;2602566;54;20089;31
2024/02/05 01:40:41;;;;;;;4.27;1.93;;;6.90;99.90;;;;;;2602362;54;20241;31
2024/02/05 01:43:20;;;;;;;4.27;2.30;;;6.90;99.90;;;;;;2602215;54;20844;31
2024/02/05 01:46:03;;;;;;;5.00;3.90;;;7.00;99.90;;;;;;2620654;47;20033;31
2024/02/05 01:48:37;;;;;;;8.02;4.47;;;6.90;99.90;;;;;;2621434;47;20037;31
2024/02/05 01:51:13;;;;;;;11.57;6.38;;;6.90;99.90;;;;;;2603185;54;20026;31
2024/02/05 01:53:50;;;;;;;10.43;6.32;;;6.90;99.90;;;;;;2602996;54;20028;31
2024/02/05 01:56:27;;;;;;;8.68;5.70;;;6.90;99.90;;;;;;2603140;54;20050;31
2024/02/05 01:59:03;;;;;;;10.35;6.90;;;6.90;99.90;;;;;;2602399;54;20049;31
2024/02/05 02:01:41;;;;;;;11.90;6.55;;;7.00;99.90;;;;;;2602976;54;20772;31
2024/02/05 02:04:17;;;;;;;11.00;5.90;;;7.00;99.90;;;;;;2602959;54;20086;31
2024/02/05 02:06:52;;;;;;;12.30;5.65;;;6.90;99.90;;;;;;2602800;54;20366;31
2024/02/05 02:09:27;;;;;;;7.25;4.03;;;7.00;99.90;;;;;;2603031;54;20031;31
2024/02/05 02:12:02;;;;;;;7.65;4.75;;;7.00;99.90;;;;;;2602898;54;20867;31
2024/02/05 02:14:38;;;;;;;7.47;4.82;;;7.00;99.90;;;;;;2603011;54;20036;31
2024/02/05 02:17:16;;;;;;;8.73;4.93;;;7.00;99.90;;;;;;2603035;54;20027;31
2024/02/05 02:19:51;;;;;;;5.03;3.03;;;7.00;99.90;;;;;;2621701;46;20873;31
2024/02/05 02:22:35;;;;;;;3.90;2.20;;;7.00;99.90;;;;;;2603082;54;20753;31
2024/02/05 02:25:13;;;;;;;2.00;1.23;;;7.00;99.90;;;;;;2602989;54;20877;31
2024/02/05 02:27:48;;;;;;;2.70;1.40;;;7.00;99.90;;;;;;2603022;54;20931;31
2024/02/05 02:30:24;;;;;;;4.40;1.50;;;7.00;99.90;;;;;;2602840;54;20030;31
2024/02/05 02:33:05;;;;;;;2.23;1.60;;;7.10;99.90;;;;;;2603153;54;20850;31
2024/02/05 02:35:42;;;;;;;4.55;1.27;;;7.00;99.90;;;;;;2603024;54;20037;31
2024/02/05 02:38:20;;;;;;;2.38;1.27;;;7.10;99.90;;;;;;2602845;54;20894;31
2024/02/05 02:41:00;;;;;;;2.80;1.00;;;7.10;99.90;;;;;;2602851;54;20793;31
2024/02/05 02:43:45;;;;;;;2.70;1.60;;;7.10;99.90;;;;;;2602997;54;20026;31
2024/02/05 02:46:21;;;;;;;;;;;7.10;99.90;;;;;;2603193;54;20882;31
2024/02/05 02:48:56;;;;;;;3.40;2.10;;;7.20;99.90;;;;;;2603087;54;20830;31
2024/02/05 02:51:31;;;;;;;4.75;2.70;;;7.20;99.90;;;;;;2621285;46;20893;31
2024/02/05 02:54:07;;;;;;;3.60;2.67;;;7.10;99.90;;;;;;2602823;54;20030;31
2024/02/05 02:56:46;;;;;;;4.22;2.67;;;7.20;99.90;;;;;;2602841;54;20026;31
2024/02/05 02:59:21;;;;;;;4.85;2.60;;;7.10;99.90;;;;;;2602853;54;20857;31
2024/02/05 03:01:56;;;;;;;7.05;3.35;;;7.10;99.90;;;;;;2612194;46;20877;31
2024/02/05 03:04:31;;;;;;;4.43;2.07;;;7.10;99.90;;;;;;2602954;54;21005;31
2024/02/05 03:07:07;;;;;;;5.03;3.17;;;7.20;99.90;;;;;;2621252;46;21192;31
2024/02/05 03:09:42;;;;;;;2.67;1.20;;;7.20;99.90;;;;;;2602747;54;20070;31
2024/02/05 03:12:21;;;;;;;2.67;1.40;;;7.20;99.90;;;;;;2602883;54;20873;31
2024/02/05 03:14:57;;;;;;;3.05;1.10;;;7.20;99.90;;;;;;2621467;46;20765;31
2024/02/05 03:17:32;;;;;;;1.60;0.80;;;7.40;99.90;;;;;;2621478;46;20852;31
2024/02/05 03:20:09;;;;;;;0.60;0.30;;;7.40;99.90;;;;;;2602860;54;20893;31
2024/02/05 03:22:45;;;;;;;0.50;0.30;;;7.50;99.90;;;;;;2602684;54;20841;31
2024/02/05 03:25:42;;;;;;;0.75;0.20;;;7.70;99.90;;;;;;2603059;54;20880;31
2024/02/05 03:28:15;;;;;;;5.20;0.30;;;7.90;99.90;;;;;;2602708;54;20030;31
2024/02/05 03:30:54;;;;;;;0.90;0.30;;;8.00;99.90;;;;;;2602769;54;20038;31
2024/02/05 03:33:29;;;;;;;0.40;0.30;;;8.10;99.90;;;;;;2602467;54;20050;31
2024/02/05 03:36:04;;;;;;;0.60;0.20;;;8.20;99.90;;;;;;2602810;54;20037;31
2024/02/05 03:38:41;;;;;;;0.40;0.38;;;8.30;99.90;;;;;;2621144;46;20939;31
2024/02/05 03:41:16;;;;;;;0.20;0.10;;;8.40;99.90;;;;;;2602803;54;20030;31
2024/02/05 03:43:51;;;;;;;0.45;0.17;;;8.50;99.90;;;;;;2602513;54;20057;31
2024/02/05 03:46:28;;;;;;;0.30;0.10;;;8.60;99.90;;;;;;2602795;54;20950;31
2024/02/05 03:49:04;;;;;;;0.40;0.20;;;8.60;99.90;;;;;;2602762;54;20105;31
2024/02/05 03:51:39;;;;;;;0.65;0.20;;;8.70;99.90;;;;;;2602574;54;20353;31
2024/02/05 03:54:12;;;;;;;0.30;0.10;;;8.80;99.90;;;;;;2602721;54;21152;31
2024/02/05 03:56:47;;;;;;;0.27;0.10;;;8.80;99.90;;;;;;2602680;54;20053;31
2024/02/05 03:59:22;;;;;;;0.20;0.20;;;8.80;99.90;;;;;;2602699;54;20265;31
2024/02/05 04:02:01;;;;;;;0.70;0.30;;;8.90;99.90;;;;;;2602550;54;20984;31
2024/02/05 04:04:34;;;;;;;0.50;0.20;;;8.90;99.90;;;;;;2602714;54;21840;31
2024/02/05 04:07:09;;;;;;;0.05;0.05;;;8.90;99.90;;;;;;2602437;54;20064;31
2024/02/05 04:09:44;;;;;;;0.90;0.20;;;9.00;99.90;;;;;;2602304;54;20030;31
2024/02/05 04:12:19;;;;;;;0.20;0.10;;;9.00;99.90;;;;;;2602489;54;20840;31
2024/02/05 04:14:54;;;;;;;0.20;0.10;;;9.00;99.90;;;;;;2602594;54;20038;31
2024/02/05 04:17:32;;;;;;;0.23;0.10;;;9.00;99.90;;;;;;2602495;54;20037;31
2024/02/05 04:20:10;;;;;;;0.10;0.10;;;9.10;99.90;;;;;;2602489;54;21102;31
2024/02/05 04:22:45;;;;;;;0.33;0.10;;;9.10;99.90;;;;;;2602579;54;20072;31
2024/02/05 04:25:23;;;;;;;0.30;0.10;;;9.10;99.90;;;;;;2602410;54;21092;31
2024/02/05 04:27:59;;;;;;;0.25;0.20;;;9.10;99.90;;;;;;2620825;46;20037;31
2024/02/05 04:30:37;;;;;;;0.10;0.08;;;9.20;99.90;;;;;;2719428;39;21441;31
2024/02/05 04:33:16;;;;;;;0.15;0.10;;;9.20;99.90;;;;;;2620856;46;20136;31
2024/02/05 04:35:51;;;;;;;0.30;0.20;;;9.20;99.90;;;;;;2602382;54;20089;31
2024/02/05 04:38:26;;;;;;;0.08;0.08;;;9.20;99.90;;;;;;2602338;54;20899;31
2024/02/05 04:41:01;;;;;;;0.10;0.00;;;9.30;99.90;;;;;;2602630;54;20022;31
2024/02/05 04:43:37;;;;;;;1.08;0.10;;;9.20;99.90;;;;;;2602447;54;20974;31
2024/02/05 04:46:14;;;;;;;0.10;0.10;;;9.20;99.90;;;;;;2602610;54;20054;31
2024/02/05 04:48:52;;;;;;;0.35;0.10;;;9.30;99.90;;;;;;2602209;54;20143;31
2024/02/05 04:51:27;;;;;;;0.30;0.20;;;9.30;99.90;;;;;;2602310;54;20034;31
2024/02/05 04:54:03;;;;;;;0.57;0.22;;;9.30;99.90;;;;;;2602277;54;20031;31
2024/02/05 04:56:38;;;;;;;0.27;0.10;;;9.30;99.90;;;;;;2620951;46;20043;31
2024/02/05 04:59:14;;;;;;;0.13;0.10;;;9.30;99.90;;;;;;2602318;54;20030;31
2024/02/05 05:01:48;;;;;;;;;;;9.30;99.90;;;;;;2602669;54;20023;31
2024/02/05 05:04:27;;;;;;;0.10;0.10;;;9.30;99.90;;;;;;2602376;54;20013;31
2024/02/05 05:07:03;;;;;;;0.20;0.10;;;9.30;99.90;;;;;;2620753;47;20930;31
2024/02/05 05:09:38;;;;;;;0.30;0.20;;;9.30;99.90;;;;;;2602060;54;20058;31
2024/02/05 05:12:15;;;;;;;0.17;0.10;;;9.30;99.90;;;;;;2602414;54;20046;31
2024/02/05 05:14:51;;;;;;;0.55;0.20;;;9.40;99.90;;;;;;2602339;54;20791;31
2024/02/05 05:17:27;;;;;;;0.57;0.27;;;9.30;99.90;;;;;;2602309;54;20727;31
2024/02/05 05:20:05;;;;;;;0.63;0.20;;;9.30;99.90;;;;;;2620417;47;20026;31
2024/02/05 05:22:41;;;;;;;0.30;0.10;;;9.30;99.90;;;;;;2701456;39;21552;31
2024/02/05 05:25:17;;;;;;;0.70;0.20;;;9.30;99.90;;;;;;2603215;54;20033;31
2024/02/05 05:27:52;;;;;;;0.38;0.20;;;9.40;99.90;;;;;;2602986;54;20916;31
2024/02/05 05:30:25;;;;;;;0.25;0.20;;;9.30;99.90;;;;;;2602906;54;21152;31
2024/02/05 05:33:00;;;;;;;0.73;0.35;;;9.30;99.90;;;;;;2603217;54;20030;31
2024/02/05 05:35:37;;;;;;;0.35;0.20;;;9.30;99.90;;;;;;2603110;54;20030;31
2024/02/05 05:38:13;;;;;;;0.75;0.40;;;9.30;99.90;;;;;;2603169;54;20026;31
2024/02/05 05:40:48;;;;;;;0.80;0.30;;;9.40;99.90;;;;;;2621470;46;20960;31
2024/02/05 05:43:23;;;;;;;1.73;0.93;;;9.40;99.90;;;;;;2603157;54;20033;31
2024/02/05 05:45:59;;;;;;;0.43;0.20;;;9.40;99.90;;;;;;2603009;54;20928;31
2024/02/05 05:48:39;;;;;;;0.60;0.30;;;9.40;99.90;;;;;;2602904;54;20114;31
2024/02/05 05:53:58;;;;;;;0.63;0.40;;;9.40;99.90;;;;;;2603034;54;20226;31
2024/02/05 05:56:57;;;;;;;1.13;0.35;;;9.40;99.90;;;;;;2602964;54;20042;31
2024/02/05 06:02:09;;;;;;;0.45;0.28;;;9.40;99.90;;;;;;2603189;54;20910;31
2024/02/05 06:04:53;;;;;;;1.60;0.30;;;9.40;99.90;;;;;;2603041;54;20754;31
2024/02/05 06:07:29;;;;;;;0.60;0.20;;;9.40;99.90;;;;;;2602882;54;20027;31
2024/02/05 06:10:18;;;;;;;0.20;0.20;;;9.40;99.90;;;;;;2621545;46;20861;31
2024/02/05 06:15:35;;;;;;;1.70;0.20;;;9.40;99.90;;;;;;2602754;54;19934;31
2024/02/05 06:18:13;;;;;;;0.47;0.20;;;9.40;99.90;;;;;;2603041;54;20846;31
2024/02/05 06:20:56;;;;;;;0.50;0.20;;;9.40;99.90;;;;;;2621496;46;20027;31
2024/02/05 06:26:10;;;;;;;1.17;0.35;;;9.40;99.90;;;;;;2603099;54;20022;31
2024/02/05 06:28:46;;;;;;;0.55;0.20;;;9.40;99.90;;;;;;2602786;54;20157;31
2024/02/05 06:31:24;;;;;;;0.80;0.38;;;9.40;99.90;;;;;;2602869;54;20030;31
2024/02/05 06:34:03;;;;;;;1.77;0.20;;;9.30;99.90;;;;;;2602066;54;20033;31
2024/02/05 06:36:43;;;;;;;1.52;0.30;;;9.40;99.90;;;;;;2602781;54;20877;31
2024/02/05 06:39:21;;;;;;;0.70;0.30;;;9.40;99.90;;;;;;2603024;54;20026;31
2024/02/05 06:44:57;;;;;;;0.30;0.20;;;9.40;99.90;;;;;;2602827;54;20884;31
2024/02/05 06:47:32;;;;;;;0.45;0.20;;;9.40;99.90;;;;;;2620708;46;20056;31
2024/02/05 06:53:06;;;;;;;0.90;0.15;;;9.40;99.90;;;;;;2620942;46;20246;31
2024/02/05 06:55:43;;;;;;;0.40;0.20;;;9.40;99.90;;;;;;2602088;54;20023;31
2024/02/05 06:58:19;;;;;;;0.50;0.20;;;9.40;99.90;;;;;;2602720;54;20050;31
2024/02/05 07:01:03;;;;;;;0.85;0.20;;;9.50;99.90;;;;;;2602721;54;21954;31
2024/02/05 07:06:23;;;;;;;0.50;0.20;;;9.50;99.90;;;;;;2602156;54;20112;31
2024/02/05 07:09:03;;;;;;;0.35;0.20;;;9.50;99.90;;;;;;2602141;54;20791;31
2024/02/05 07:11:45;;;;;;;0.60;0.20;;;9.50;99.90;;;;;;2602368;54;21320;31
2024/02/05 07:14:27;;;;;;;0.30;0.10;;;9.50;99.90;;;;;;2601911;54;21104;31
2024/02/05 07:17:09;;;;;;;0.20;0.10;;;9.50;99.90;;;;;;2609680;46;20243;31
2024/02/05 07:19:48;;;;;;;0.90;0.30;;;9.50;99.90;;;;;;2719095;39;21446;31
2024/02/05 07:22:26;;;;;;;1.90;0.95;;;9.50;99.90;;;;;;2605868;46;20038;31
2024/02/05 07:25:03;;;;;;;1.15;0.30;;;9.50;99.90;;;;;;2621154;46;20030;31
2024/02/05 07:27:43;;;;;;;0.82;0.30;;;9.50;99.90;;;;;;2602736;54;20081;31
2024/02/05 07:30:23;;;;;;;0.20;0.10;;;9.50;99.90;;;;;;2602601;54;20026;31
2024/02/05 07:33:07;;;;;;;1.50;0.20;;;9.50;99.90;;;;;;2602619;54;20127;31
2024/02/05 07:35:46;;;;;;;0.13;0.10;;;9.50;99.90;;;;;;2602890;54;20245;31
2024/02/05 07:38:27;;;;;;;0.50;0.20;;;9.50;99.90;;;;;;2620965;46;20800;31
2024/02/05 07:43:59;;;;;;;0.50;0.30;;;9.50;99.90;;;;;;2602038;54;20030;31
2024/02/05 07:46:43;;;;;;;0.80;0.20;;;9.50;99.90;;;;;;2615034;47;20921;31
2024/02/05 07:49:41;;;;;;;0.40;0.25;;;9.60;99.90;;;;;;2620561;46;20795;31
2024/02/05 07:52:44;;;;;;;0.82;0.20;;;9.60;99.90;;;;;;2602717;54;20026;31
2024/02/05 07:58:02;;;;;;;0.65;0.32;;;9.60;99.90;;;;;;2602907;54;20023;31
2024/02/05 08:00:42;;;;;;;0.55;0.40;;;9.60;99.90;;;;;;2602692;54;20877;31
2024/02/05 08:03:35;;;;;;;0.77;0.43;;;9.60;99.90;;;;;;2602627;54;20026;31
2024/02/05 08:06:33;;;;;;;1.08;0.47;;;9.70;99.90;;;;;;2602386;54;20834;31
2024/02/05 08:09:29;;;;;;;;;;;;;;;;;;;;;
2024/02/05 08:12:15;;;;;;;1.30;0.35;;;9.70;99.90;;;;;;2602566;54;20026;31
2024/02/05 08:18:21;;;;;;;;;;;;;;;;;;;;;
2024/02/05 08:21:18;;;;;;;0.20;0.17;;;9.80;99.90;;;;;;2602512;54;20089;31
2024/02/05 08:27:00;;;;;;;0.40;0.23;;;9.80;99.90;;;;;;2602820;54;20026;31
2024/02/05 08:30:11;;;;;;;;;;;;;;;;;;;;;
2024/02/05 08:33:03;;;;;;;0.67;0.20;;;9.80;99.90;;;;;;2602716;54;20026;31
2024/02/05 08:36:34;;;;;;;2.53;0.50;;;9.80;99.90;;;;;;2602269;54;20032;31
2024/02/05 08:39:41;;;;;;;;;;;;;;;;;;;;;
2024/02/05 08:42:28;;;;;;;0.90;0.50;;;9.80;99.90;;;;;;2602551;54;20913;31
2024/02/05 08:45:51;;;;;;;;;;;;;;;;;;;;;
2024/02/05 08:48:45;;;;;;;1.07;0.50;;;9.80;99.90;;;;;;2602188;54;20894;31
2024/02/05 08:54:44;;;;;;;3.67;1.20;;;9.90;99.90;;;;;;2621021;46;20030;31
2024/02/05 09:00:34;;;;;;;0.82;0.40;;;9.90;99.90;;;;;;2602149;54;20031;31
2024/02/05 09:03:13;;;;;;;0.50;0.40;;;9.80;99.90;;;;;;2621048;46;20030;31
2024/02/05 09:16:26;;;;;;;0.90;0.60;;;9.90;99.90;;;;;;2610182;54;20031;31
2024/02/05 09:19:11;;;;;;;1.75;0.47;;;9.90;99.90;;;;;;2602337;54;20974;31
2024/02/05 09:22:01;;;;;;;;;;;;;;;;;;;;;
2024/02/05 09:24:45;;;;;;;1.00;0.45;;;9.90;99.90;;;;;;2602220;54;20034;31
2024/02/05 09:28:00;;;;;;;;;;;;;;;;;;;;;
2024/02/05 09:31:26;;;;;;;1.50;0.40;;;9.80;99.90;;;;;;2602394;54;20758;31
2024/02/05 09:40:18;;;;;;;1.25;0.57;;;9.90;99.90;;;;;;2601777;54;20022;31
2024/02/05 09:54:43;;;;;;;;;;;;;;;;;;;;;
2024/02/05 09:58:19;;;;;;;1.17;0.50;;;9.90;99.90;;;;;;2602134;54;20022;31
2024/02/05 10:01:30;;;;;;;2.25;1.00;;;9.90;99.90;;;;;;2602410;47;20805;31
2024/02/05 10:04:18;;;;;;;0.70;0.40;;;10.00;99.90;;;;;;2620747;47;20037;31
2024/02/05 10:09:44;;;;;;;2.78;0.60;;;10.00;99.90;;;;;;2621199;47;20119;31
2024/02/05 10:12:26;;;;;;;0.75;0.45;;;10.00;99.90;;;;;;2602873;54;20026;31
2024/02/05 10:15:12;;;;;;;1.15;0.40;;;10.00;99.90;;;;;;2602888;54;20030;31
2024/02/05 10:17:55;;;;;;;1.75;0.80;;;10.10;99.90;;;;;;2621545;46;20022;31
2024/02/05 10:20:40;;;;;;;1.25;0.60;;;10.10;99.90;;;;;;2621528;46;20033;31
2024/02/05 10:23:19;;;;;;;1.38;0.40;;;10.10;99.90;;;;;;2603055;54;20868;31
2024/02/05 10:26:07;;;;;;;1.70;0.30;;;10.10;99.90;;;;;;2602917;54;20085;31
2024/02/05 10:31:47;;;;;;;0.68;0.47;;;10.10;99.90;;;;;;2602844;54;20042;31
2024/02/05 10:34:27;;;;;;;1.30;0.63;;;10.20;99.90;;;;;;2602698;54;20872;31
2024/02/05 10:37:10;;;;;;;1.10;0.60;;;10.20;99.90;;;;;;2602014;54;20864;31
2024/02/05 10:39:52;;;;;;;0.95;0.40;;;10.20;99.90;;;;;;2602721;54;20026;31
2024/02/05 10:42:38;;;;;;;2.63;0.60;;;10.20;99.90;;;;;;2602689;54;20033;31
2024/02/05 10:45:31;;;;;;;1.05;0.60;;;10.20;99.90;;;;;;2602739;54;20089;31
2024/02/05 10:48:46;;;;;;;1.10;0.90;;;10.20;99.90;;;;;;2602800;54;20026;31
2024/02/05 10:51:34;;;;;;;;;;;;;;;;;;;;;
2024/02/05 10:54:23;;;;;;;0.85;0.55;;;10.30;99.90;;;;;;2701379;39;21064;31
2024/02/05 10:57:08;;;;;;;1.27;0.68;;;10.30;99.90;;;;;;2602877;54;20053;31
2024/02/05 10:59:45;;;;;;;1.58;0.70;;;10.30;99.90;;;;;;2602756;54;20908;31
2024/02/05 11:02:33;;;;;;;1.10;0.50;;;10.40;99.90;;;;;;2602922;54;20030;31
2024/02/05 11:05:09;;;;;;;3.47;0.60;;;10.30;99.90;;;;;;2621105;46;20743;31
2024/02/05 11:08:01;;;;;;;1.20;0.80;;;10.30;99.90;;;;;;2621521;46;20937;31
2024/02/05 11:13:21;;;;;;;3.65;0.75;;;10.30;99.90;;;;;;2602268;54;20038;31
2024/02/05 11:16:20;;;;;;;2.93;0.87;;;10.30;99.90;;;;;;2602769;54;20022;31
2024/02/05 11:19:01;;;;;;;2.03;0.90;;;10.30;99.90;;;;;;2601814;54;20053;31
2024/02/05 11:24:50;;;;;;;2.93;0.50;;;10.30;99.90;;;;;;2621487;46;20052;31
2024/02/05 11:27:40;;;;;;;;;;;10.40;99.90;;;;;;2603199;54;20945;31
2024/02/05 11:30:25;;;;;;;1.35;0.60;;;10.30;99.90;;;;;;2621348;46;20639;31
2024/02/05 11:33:04;;;;;;;2.65;1.10;;;10.30;99.90;;;;;;2602635;54;20883;31
2024/02/05 11:38:53;;;;;;;1.70;0.90;;;10.40;99.90;;;;;;2602654;54;20045;31
2024/02/05 11:42:28;;;;;;;3.58;0.70;;;10.40;99.90;;;;;;2602754;54;20033;31
2024/02/05 11:45:44;;;;;;;3.55;1.17;;;10.40;99.90;;;;;;2620881;46;20745;31
2024/02/05 12:01:02;;;;;;;3.22;1.30;;;10.40;99.90;;;;;;2602661;54;20030;31
2024/02/05 12:04:09;;;;;;;4.83;1.33;;;10.40;99.90;;;;;;2602311;54;20116;31
2024/02/05 12:07:00;;;;;;;2.72;0.95;;;10.40;99.90;;;;;;2602493;54;20034;31
2024/02/05 12:12:42;;;;;;;4.38;1.40;;;10.40;99.90;;;;;;2600769;54;20085;31
2024/02/05 12:15:25;;;;;;;9.00;1.50;;;10.40;99.90;;;;;;2601800;54;20875;31
2024/02/05 12:18:05;;;;;;;4.30;1.33;;;10.30;99.90;;;;;;2601778;54;20873;31
2024/02/05 12:20:52;;;;;;;3.65;1.45;;;10.40;99.90;;;;;;2602680;54;20588;31
2024/02/05 12:23:30;;;;;;;6.07;1.73;;;10.40;99.90;;;;;;2602260;54;20072;31
2024/02/05 12:26:09;;;;;;;6.25;1.55;;;10.40;99.90;;;;;;2620988;46;20878;31
2024/02/05 12:28:50;;;;;;;4.32;2.00;;;10.30;99.90;;;;;;2602646;54;22510;31
2024/02/05 12:31:42;;;;;;;4.70;1.70;;;10.40;99.90;;;;;;2602108;54;20057;31
2024/02/05 12:34:19;;;;;;;6.75;1.25;;;10.40;99.90;;;;;;2602724;54;20891;31
2024/02/05 12:37:04;;;;;;;6.75;1.52;;;10.40;99.90;;;;;;2621195;46;20038;31
2024/02/05 12:39:52;;;;;;;5.65;1.65;;;10.40;99.90;;;;;;2602488;54;20033;31
2024/02/05 12:42:43;;;;;;;3.78;1.00;;;10.50;99.90;;;;;;2700835;39;21432;31
2024/02/05 12:45:18;;;;;;;7.05;1.90;;;10.50;99.90;;;;;;2621188;46;20083;31
2024/02/05 12:47:55;;;;;;;;;;;10.50;99.90;;;;;;2602614;54;20937;31
2024/02/05 12:50:38;;;;;;;5.18;1.33;;;10.50;99.90;;;;;;2620500;46;20797;31
2024/02/05 12:53:25;;;;;;;5.43;1.60;;;10.50;99.90;;;;;;2602379;54;20873;31
2024/02/05 12:56:06;;;;;;;7.55;2.17;;;10.50;99.90;;;;;;2602605;54;21586;31
2024/02/05 12:58:49;;;;;;;;;;;10.50;99.90;;;;;;2701232;39;20489;31
2024/02/05 13:01:25;;;;;;;8.93;2.90;;;10.50;99.90;;;;;;2617917;46;20006;31
2024/02/05 13:04:05;;;;;;;;;;;10.60;99.90;;;;;;2602588;54;20033;31
2024/02/05 13:06:47;;;;;;;7.90;2.15;;;10.60;99.90;;;;;;2602649;54;20744;31
2024/02/05 13:09:34;;;;;;;5.80;2.28;;;10.60;99.90;;;;;;2602609;54;20026;31
2024/02/05 13:12:15;;;;;;;4.45;1.80;;;10.50;99.90;;;;;;2602389;54;20050;31
2024/02/05 13:14:55;;;;;;;4.95;1.58;;;10.50;99.90;;;;;;2601773;54;20580;31
2024/02/05 13:17:33;;;;;;;5.90;1.98;;;10.50;99.90;;;;;;2602586;54;20902;31
2024/02/05 13:20:11;;;;;;;6.43;2.10;;;10.50;99.90;;;;;;2602378;54;20045;31
2024/02/05 13:22:52;;;;;;;7.82;2.17;;;10.50;99.90;;;;;;2620770;47;21227;31
2024/02/05 13:28:19;;;;;;;11.23;2.40;;;10.50;99.90;;;;;;2771467;31;20591;31
2024/02/05 13:30:58;;;;;;;5.47;1.92;;;10.40;99.90;;;;;;2602307;54;20249;31
2024/02/05 13:33:38;;;;;;;9.02;3.33;;;10.40;99.90;;;;;;2602373;54;20030;31
2024/02/05 13:36:23;;;;;;;7.50;2.10;;;10.50;99.90;;;;;;2601604;54;20580;31
2024/02/05 13:39:06;;;;;;;5.60;2.37;;;10.30;99.90;;;;;;2608143;47;21852;31
2024/02/05 13:41:49;;;;;;;6.93;2.10;;;10.40;99.90;;;;;;2605941;47;20031;31
2024/02/05 13:44:36;;;;;;;8.25;2.53;;;10.40;99.90;;;;;;2602873;54;20030;31
2024/02/05 13:47:15;;;;;;;7.80;2.60;;;10.40;99.90;;;;;;2621567;46;20031;31
2024/02/05 13:49:55;;;;;;;6.40;2.85;;;10.30;99.90;;;;;;2603006;54;20773;31
2024/02/05 13:55:10;;;;;;;9.00;3.10;;;10.30;99.90;;;;;;2602165;54;20105;31
2024/02/05 13:57:50;;;;;;;9.35;2.47;;;10.20;99.90;;;;;;2602925;54;20057;31
2024/02/05 14:00:31;;;;;;;9.45;3.33;;;10.20;99.90;;;;;;2621171;46;20030;31
2024/02/05 14:03:08;;;;;;;11.63;4.57;;;10.20;99.90;;;;;;2602975;54;20892;31
2024/02/05 14:05:48;;;;;;;12.05;3.20;;;10.20;99.90;;;;;;2621859;46;20774;31
2024/02/05 14:14:19;;;;;;;8.17;2.57;;;10.10;99.90;;;;;;2601811;54;20027;31
2024/02/05 14:16:59;;;;;;;6.65;2.67;;;10.10;99.90;;;;;;2619849;46;20971;31
2024/02/05 14:19:42;;;;;;;13.75;3.42;;;10.10;99.90;;;;;;2603245;54;20581;31
2024/02/05 14:22:20;;;;;;;8.55;3.17;;;10.10;99.90;;;;;;2603107;54;20023;31
2024/02/05 14:25:01;;;;;;;12.20;3.15;;;10.10;99.90;;;;;;2602928;54;20034;31
2024/02/05 14:27:39;;;;;;;9.10;4.05;;;10.10;99.90;;;;;;2621433;46;20171;31
2024/02/05 14:30:21;;;;;;;13.50;3.70;;;10.10;99.90;;;;;;2602898;54;20037;31
2024/02/05 14:33:12;;;;;;;14.20;2.80;;;10.20;99.90;;;;;;2602245;54;20046;31
2024/02/05 14:35:52;;;;;;;13.60;2.92;;;10.20;99.90;;;;;;2602702;54;20054;31
2024/02/05 14:38:26;;;;;;;9.93;2.83;;;10.30;99.90;;;;;;2621308;46;21869;31
2024/02/05 14:41:07;;;;;;;8.65;3.17;;;10.20;99.90;;;;;;2602761;54;20930;31
2024/02/05 14:43:42;;;;;;;13.52;3.45;;;10.20;99.90;;;;;;2602817;54;20936;31
2024/02/05 14:46:20;;;;;;;10.70;3.10;;;10.30;99.90;;;;;;2602638;54;20048;31
2024/02/05 14:49:04;;;;;;;13.20;2.97;;;10.30;99.90;;;;;;2602615;54;20904;31
2024/02/05 15:01:20;;;;;;;8.25;3.55;;;10.30;99.90;;;;;;2602063;54;20771;31
2024/02/05 15:04:08;;;;;;;9.95;2.85;;;10.30;99.90;;;;;;2602791;54;20093;31
2024/02/05 15:06:43;;;;;;;11.60;3.65;;;10.30;99.90;;;;;;2621139;46;20026;31
2024/02/05 15:09:23;;;;;;;9.20;3.60;;;10.30;99.90;;;;;;2602954;54;20851;31
2024/02/05 15:12:00;;;;;;;10.40;3.25;;;10.40;99.90;;;;;;2701416;39;21474;31
2024/02/05 15:14:38;;;;;;;14.13;3.50;;;10.40;99.90;;;;;;2701284;39;20500;31
2024/02/05 15:17:16;;;;;;;11.48;3.90;;;10.40;99.90;;;;;;2602703;54;20030;31
2024/02/05 15:19:54;;;;;;;12.13;3.25;;;10.40;99.90;;;;;;2621450;46;20960;31
2024/02/05 15:22:29;;;;;;;11.17;3.20;;;10.40;99.90;;;;;;2602744;54;20598;31
2024/02/05 15:25:05;;;;;;;16.67;3.97;;;10.40;99.90;;;;;;2602922;54;21206;31
2024/02/05 15:27:40;;;;;;;9.80;3.50;;;10.40;99.90;;;;;;2602777;54;20042;31
2024/02/05 15:30:20;;;;;;;8.07;3.80;;;10.40;99.90;;;;;;2602692;54;20052;31
2024/02/05 15:33:00;;;;;;;11.98;3.78;;;10.40;99.90;;;;;;2602830;54;20819;31
2024/02/05 15:35:49;;;;;;;10.82;3.25;;;10.40;99.90;;;;;;2602711;54;20905;31
2024/02/05 15:38:27;;;;;;;8.98;3.65;;;10.40;99.90;;;;;;2602821;54;20101;31
2024/02/05 15:41:02;;;;;;;11.37;3.33;;;10.50;99.90;;;;;;2602849;54;20830;31
2024/02/05 15:43:38;;;;;;;14.75;3.40;;;10.50;99.90;;;;;;2602919;54;20026;31
2024/02/05 15:46:16;;;;;;;13.85;4.15;;;10.50;99.90;;;;;;2602918;54;20793;31
2024/02/05 15:48:59;;;;;;;8.80;3.83;;;10.50;99.90;;;;;;2772609;31;20616;31
2024/02/05 15:51:36;;;;;;;9.65;3.38;;;10.50;99.90;;;;;;2602722;54;20796;31
2024/02/05 15:54:12;;;;;;;17.35;4.55;;;10.50;99.90;;;;;;2602671;54;20030;31
2024/02/05 15:56:47;;;;;;;13.68;3.60;;;10.50;99.90;;;;;;2602606;54;20029;31
2024/02/05 15:59:25;;;;;;;11.87;4.43;;;10.50;99.90;;;;;;2602791;54;20132;31
2024/02/05 16:02:00;;;;;;;14.55;3.53;;;10.50;99.90;;;;;;2701427;39;21647;31
2024/02/05 16:04:35;;;;;;;10.70;3.35;;;10.50;99.90;;;;;;2602658;54;20049;31
2024/02/05 16:07:14;;;;;;;12.10;3.90;;;10.50;99.90;;;;;;2602231;54;20208;31
2024/02/05 16:09:49;;;;;;;18.52;5.53;;;10.50;99.90;;;;;;2621242;46;20027;31
2024/02/05 16:12:24;;;;;;;9.97;4.33;;;10.50;99.90;;;;;;2602673;54;20922;31
2024/02/05 16:15:01;;;;;;;;;;;10.50;99.90;;;;;;2602834;54;20838;31
2024/02/05 16:17:36;;;;;;;13.40;3.30;;;10.50;99.90;;;;;;2602727;54;20753;31
2024/02/05 16:20:13;;;;;;;14.07;4.07;;;10.50;99.90;;;;;;2701011;39;20484;31
2024/02/05 16:22:58;;;;;;;10.65;3.90;;;10.50;99.90;;;;;;2602655;54;20760;31
2024/02/05 16:25:35;;;;;;;12.10;4.20;;;10.50;99.90;;;;;;2602720;54;20841;31